Date,TemperatureHighF,TemperatureAvgF,TemperatureLowF,DewpointHighF,DewpointAvgF,DewpointLowF,HumidityHigh,HumidityAvg,HumidityLow,PressureMaxIn,PressureMinIn,WindSpeedMaxMPH,WindSpeedAvgMPH,GustSpeedMaxMPH,PrecipitationSumIn
2012-1-1,34,25,20,22,18,15,83,73,56,0.00,40.00,5,3,6,0.00
2012-1-2,36,26,19,24,20,16,91,79,56,0.00,40.00,6,3,6,0.00
2012-1-3,49,40,29,32,28,25,92,62,40,0.00,40.00,12,4,18,0.00
2012-1-4,50,38,30,32,28,25,92,68,42,0.00,40.00,12,4,16,0.00
2012-1-5,55,45,38,34,27,22,62,49,32,0.00,40.00,23,12,28,0.00
2012-1-6,38,32,25,24,20,17,79,63,51,0.00,40.00,7,3,8,0.00
2012-1-7,34,29,23,26,21,19,89,75,59,0.00,40.00,9,4,12,0.00
2012-1-8,36,32,29,30,29,27,95,88,79,0.00,40.00,9,4,11,0.00
2012-1-9,43,34,26,34,29,25,97,86,63,0.00,40.00,6,2,8,0.00
2012-1-10,39,33,23,35,26,9,98,77,52,0.00,40.00,17,6,26,0.00
2012-1-11,28,17,8,12,9,5,87,72,48,0.00,40.00,8,4,9,0.00
2012-1-12,27,18,10,17,13,8,91,82,60,0.00,40.00,6,2,8,0.00
2012-1-13,29,22,18,21,18,15,89,83,68,0.00,40.00,5,2,6,0.00
2012-1-14,42,32,23,30,23,20,90,74,47,0.00,40.00,18,6,21,0.00
2012-1-15,31,24,14,22,15,9,89,68,51,0.00,40.00,10,4,14,0.00
2012-1-16,24,17,10,17,10,5,83,74,54,0.00,40.00,12,5,16,0.00
2012-1-17,32,26,21,23,16,12,94,65,49,0.00,40.00,19,9,24,0.00
2012-1-18,25,13,5,18,9,2,89,86,71,0.00,40.00,10,4,12,0.00
2012-1-19,12,8,5,8,5,1,88,86,84,0.00,40.00,8,5,9,0.00
2012-1-20,26,16,10,18,12,7,91,83,69,0.00,40.00,6,2,8,0.00
2012-1-21,44,31,21,33,24,19,94,78,54,0.00,40.00,16,5,20,0.00
2012-1-22,39,32,28,23,19,16,66,58,47,0.00,40.00,16,6,18,0.00
2012-1-23,42,31,23,31,21,11,93,69,36,0.00,40.00,9,5,11,0.00
2012-1-24,26,18,9,23,15,7,94,87,73,0.00,40.00,6,2,6,0.00
2012-1-25,42,38,25,36,28,21,96,70,43,0.00,40.00,22,8,28,0.00
2012-1-26,44,37,29,33,26,13,94,66,43,0.00,40.00,24,10,32,0.00
2012-1-27,34,26,20,16,11,8,65,53,38,0.00,40.00,15,4,20,0.00
2012-1-28,34,25,18,30,18,12,92,74,60,0.00,40.00,11,4,15,0.00
2012-1-29,45,39,29,35,31,26,91,75,61,0.00,40.00,11,6,15,0.00
2012-1-30,45,39,36,37,32,26,97,78,57,0.00,40.00,12,6,16,0.00
2012-1-31,44,37,32,30,27,22,86,68,46,0.00,40.00,11,5,13,0.00
2012-2-1,38,31,25,32,27,23,99,87,63,0.00,40.00,4,2,5,0.00
2012-2-2,38,34,28,36,31,25,99,90,71,0.00,40.00,4,1,5,0.00
2012-2-3,39,28,20,26,23,18,94,83,56,0.00,40.00,6,3,8,0.00
2012-2-4,29,26,21,22,20,18,91,81,73,0.00,40.00,6,3,7,0.00
2012-2-5,27,25,23,22,20,19,85,81,77,0.00,40.00,6,3,8,0.00
2012-2-6,40,26,22,26,21,18,93,82,51,0.00,40.00,8,3,9,0.00
2012-2-7,38,28,21,25,16,13,86,62,39,0.00,40.00,8,5,9,0.00
2012-2-8,31,23,13,24,17,10,89,77,63,0.00,40.00,8,3,9,0.00
2012-2-9,34,29,26,28,26,24,97,90,75,0.00,40.00,4,2,4,0.00
2012-2-10,37,31,27,32,28,24,97,91,78,0.00,40.00,6,3,7,0.00
2012-2-11,34,30,27,26,23,20,87,75,59,0.00,40.00,5,3,6,0.00
2012-2-12,35,32,30,33,30,26,97,93,84,0.00,40.00,4,1,4,0.00
2012-2-13,36,34,31,35,31,29,99,92,77,0.00,40.00,8,3,11,0.00
2012-2-14,39,31,23,31,22,16,94,71,42,0.00,40.00,9,4,10,0.00
2012-2-15,35,25,15,24,19,12,91,78,54,0.00,40.00,6,3,6,0.00
2012-2-16,36,29,22,29,24,17,98,80,54,0.00,40.00,8,3,9,0.00
2012-2-17,38,32,28,34,28,25,99,87,65,0.00,40.00,6,2,7,0.00
2012-2-18,44,34,28,34,25,17,97,73,41,0.00,40.00,11,5,14,0.00
2012-2-19,36,33,30,31,27,23,93,79,63,0.00,40.00,12,6,15,0.00
2012-2-20,35,32,29,30,27,20,97,82,62,0.00,40.00,12,6,14,0.00
2012-2-21,38,35,31,36,33,29,99,95,89,0.00,40.00,12,6,17,0.00
2012-2-22,45,38,31,39,32,22,97,79,61,0.00,40.00,19,8,22,0.00
2012-2-23,39,33,30,26,22,16,77,64,40,0.00,40.00,14,4,18,0.00
2012-2-24,38,34,29,29,26,23,90,74,56,0.00,40.00,14,5,17,0.00
2012-2-25,38,33,29,34,28,20,98,84,52,0.00,40.00,17,7,22,0.00
2012-2-26,38,30,24,30,23,15,97,79,42,0.00,40.00,18,7,24,0.00
2012-2-27,36,25,18,23,18,15,96,75,49,0.00,40.00,8,4,9,0.00
2012-2-28,33,21,11,18,14,9,90,76,53,0.00,40.00,7,3,9,0.00
2012-2-29,38,26,19,29,20,16,90,80,49,0.00,40.00,10,4,13,0.00
2012-3-1,37,30,24,28,25,20,94,83,52,0.00,40.00,11,6,14,0.00
2012-3-2,35,29,19,26,20,16,98,73,46,0.00,40.00,14,6,18,0.00
2012-3-3,49,40,32,33,29,24,87,67,46,0.00,40.00,22,9,27,0.00
2012-3-4,56,47,41,34,31,28,72,54,38,0.00,40.00,11,6,15,0.00
2012-3-5,50,44,38,33,29,27,79,56,43,0.00,40.00,19,8,27,0.00
2012-3-6,36,32,29,32,18,12,89,55,44,0.00,40.00,22,11,27,0.00
2012-3-8,48,37,24,27,25,20,84,62,43,0.00,40.00,9,4,9,0.00
2012-3-9,64,44,27,32,26,21,90,56,23,0.00,40.00,14,5,17,0.00
2012-3-10,59,43,29,32,26,-100,90,57,32,0.00,40.00,12,4,14,0.00
2012-3-11,45,45,45,28,28,28,51,51,51,0.00,40.00,7,7,8,0.00
2012-3-12,43,40,29,35,25,16,83,56,40,0.00,40.00,18,9,22,0.00
2012-3-13,52,39,29,37,30,18,93,71,44,0.00,40.00,26,10,34,0.00
2012-3-14,41,34,27,28,22,17,94,62,49,0.00,40.00,11,5,14,0.00
2012-3-15,49,42,35,44,38,31,94,86,71,0.00,40.00,15,7,19,0.00
2012-3-16,47,42,33,42,34,16,98,77,33,0.00,40.00,19,8,32,0.00
2012-3-17,36,33,31,35,29,21,99,85,62,0.00,40.00,7,3,10,0.00
2012-3-18,37,34,32,34,32,30,99,92,75,0.00,40.00,8,4,11,0.00
2012-3-19,42,35,30,34,24,11,96,70,36,0.00,40.00,17,6,19,0.00
2012-3-20,43,34,27,34,25,-100,97,72,47,0.00,40.00,22,9,29,0.00
2012-3-21,37,34,32,35,33,31,98,94,87,0.00,40.00,13,5,18,0.00
2012-3-22,46,36,32,39,28,-100,99,80,36,0.00,40.00,14,-4,17,0.00
2012-3-23,39,35,31,33,30,25,97,84,69,0.00,40.00,17,5,20,0.00
2012-3-26,52,43,32,39,33,29,96,69,48,0.00,40.00,16,7,18,0.00
2012-3-27,56,43,30,36,30,25,97,64,32,0.00,40.00,11,5,15,0.00
2012-3-28,52,41,36,41,33,25,93,74,43,0.00,40.00,11,6,14,0.00
2012-3-29,54,44,36,34,31,29,80,64,44,0.00,40.00,16,7,19,0.00
2012-3-30,50,45,41,40,36,32,88,71,51,0.00,40.00,12,7,16,0.00
2012-3-31,65,46,37,45,39,36,98,79,38,0.00,40.00,17,6,26,0.00
2012-4-1,47,42,37,38,30,20,91,66,39,0.00,40.00,22,9,28,0.00
2012-4-2,48,40,33,31,25,21,86,57,35,0.00,40.00,11,5,13,0.00
2012-4-3,57,41,26,29,26,23,90,59,31,0.00,40.00,9,4,12,0.00
2012-4-4,53,40,32,40,29,22,85,65,45,0.00,40.00,18,8,22,0.00
2012-4-5,45,37,32,32,27,22,91,68,45,0.00,40.00,12,4,17,0.00
2012-4-6,43,36,28,29,26,23,86,69,45,0.00,40.00,10,5,14,0.00
2012-4-7,48,37,32,33,26,18,97,70,31,0.00,40.00,9,5,12,0.00
2012-4-8,56,40,24,26,18,9,83,48,16,0.00,40.00,6,4,8,0.00
2012-4-9,62,48,35,31,24,17,64,42,27,0.00,40.00,6,4,8,0.00
2012-4-10,69,51,36,37,32,27,72,50,29,0.00,40.00,10,4,12,0.00
2012-4-11,70,55,42,39,35,32,73,49,30,0.00,40.00,17,6,21,0.00
2012-4-12,56,48,39,45,36,25,97,67,34,0.00,40.00,16,7,21,0.00
2012-4-13,57,44,33,36,31,28,91,64,36,0.00,40.00,15,6,17,0.00
2012-4-15,46,42,36,37,32,30,91,68,53,0.00,40.00,8,4,9,0.00
2012-4-16,52,43,38,42,37,31,94,79,46,0.00,40.00,12,5,16,0.00
2012-4-17,56,47,41,40,32,24,88,61,31,0.00,40.00,9,4,14,0.00
2012-4-18,51,44,40,40,34,27,90,69,52,0.00,40.00,11,5,15,0.00
2012-4-19,55,44,37,40,34,26,97,71,35,0.00,40.00,11,5,16,0.00
2012-4-20,58,49,42,46,37,31,90,65,42,0.00,40.00,20,8,23,0.00
2012-4-21,62,49,37,43,39,36,96,72,45,0.00,40.00,10,4,12,0.00
2012-4-22,77,57,39,42,39,35,90,57,26,0.00,40.00,8,4,9,0.00
2012-4-23,80,64,47,46,42,38,75,49,30,0.00,40.00,11,4,13,0.00
2012-4-24,77,63,52,49,45,40,74,54,29,0.00,40.00,17,5,23,0.00
2012-4-25,72,58,45,48,44,40,90,63,34,0.00,40.00,12,5,16,0.00
2012-4-26,68,55,50,52,47,38,93,75,49,0.00,40.00,18,6,22,0.00
2012-4-27,49,43,38,39,34,29,89,72,56,0.00,40.00,16,8,19,0.00
2012-4-28,49,43,40,34,32,30,70,65,58,0.00,40.00,9,6,10,0.00
2012-4-30,56,48,42,48,42,35,96,83,52,0.00,40.00,14,7,17,0.00
2012-5-1,51,46,43,38,30,26,77,55,39,0.00,40.00,15,8,17,0.00
2012-5-2,50,43,35,36,32,27,83,67,50,0.00,40.00,16,6,22,0.00
2012-5-3,48,41,30,40,34,28,99,77,48,0.00,40.00,8,3,11,0.00
2012-5-4,58,48,40,41,34,25,97,63,32,0.00,40.00,11,5,14,0.00
2012-5-5,47,41,37,37,32,-100,97,75,45,0.00,40.00,18,9,20,0.00
2012-5-6,58,47,38,37,32,27,91,61,34,0.00,40.00,11,5,13,0.00
2012-5-7,64,50,33,37,33,30,92,55,31,0.00,40.00,9,4,13,0.00
2012-5-8,74,57,39,40,37,35,93,51,27,0.00,40.00,12,5,17,0.00
2012-5-9,68,58,44,45,35,19,84,46,25,0.00,40.00,19,8,24,0.00
2012-5-10,54,48,40,21,18,16,41,30,24,0.00,40.00,19,10,28,0.00
2012-5-11,60,46,30,30,25,18,76,47,27,0.00,40.00,11,5,16,0.00
2012-5-12,68,50,32,34,28,-100,78,48,26,0.00,40.00,9,4,12,0.00
2012-5-13,75,58,36,39,35,29,84,46,24,0.00,40.00,12,5,15,0.00
2012-5-14,82,60,41,43,38,34,77,48,23,0.00,40.00,6,3,8,0.00
2012-5-15,84,64,45,45,41,37,73,47,22,0.00,40.00,10,4,14,0.00
2012-5-16,80,64,46,45,38,28,82,44,19,0.00,40.00,16,5,19,0.00
2012-5-17,70,61,52,45,38,30,58,42,34,0.00,40.00,13,6,18,0.00
2012-5-18,61,53,40,42,36,29,86,53,34,0.00,40.00,11,3,14,0.00
2012-5-19,65,51,35,40,33,-100,89,55,30,0.00,40.00,6,1,8,0.00
2012-5-20,69,55,38,47,39,32,86,58,34,0.00,40.00,9,2,12,0.00
2012-5-21,59,55,50,56,51,46,96,88,66,0.00,40.00,9,2,11,0.00
2012-5-22,58,54,49,53,40,30,97,63,40,0.00,40.00,17,8,21,0.00
2012-5-23,55,48,43,43,37,31,92,69,42,0.00,40.00,14,7,18,0.00
2012-5-24,57,48,44,43,38,32,88,68,46,0.00,40.00,9,4,13,0.00
2012-5-25,57,50,41,32,30,27,70,48,35,0.00,40.00,21,6,27,0.00
2012-5-26,56,51,45,32,30,29,56,44,36,0.00,40.00,11,4,15,0.00
2012-5-27,49,44,42,43,39,30,97,83,48,0.00,40.00,9,4,12,0.00
2012-5-28,64,51,42,45,42,40,98,74,43,0.00,40.00,12,5,14,0.00
2012-5-29,60,50,42,48,41,31,97,75,36,0.00,40.00,15,6,20,0.00
2012-5-30,64,52,42,44,39,33,86,63,41,0.00,40.00,12,5,16,0.00
2012-5-31,55,50,42,50,44,37,93,82,54,0.00,40.00,6,2,8,0.00
2012-6-1,59,52,48,54,50,47,98,94,76,0.00,40.00,5,2,6,0.00
2012-6-4,77,70,62,56,50,47,80,51,39,0.00,40.00,6,2,8,0.00
2012-6-5,64,56,45,54,50,43,93,81,62,0.00,40.00,11,5,14,0.00
2012-6-6,45,45,45,43,43,43,94,94,93,0.00,40.00,1,0,1,0.00
2012-6-8,55,52,47,46,42,35,81,69,56,0.00,40.00,12,6,16,0.00
2012-6-9,54,47,40,41,34,-100,93,68,43,0.00,40.00,16,6,20,0.00
2012-6-10,51,45,40,45,42,39,97,91,73,0.00,40.00,15,9,18,0.00
2012-6-11,69,57,48,48,44,41,84,66,40,0.00,40.00,11,5,15,0.00
2012-6-12,67,55,45,53,46,44,97,77,46,0.00,40.00,14,4,17,0.00
2012-6-13,65,60,53,52,41,38,94,52,41,0.00,40.00,19,12,29,0.00
2012-6-14,71,59,46,45,41,33,91,56,31,0.00,40.00,11,5,14,0.00
2012-6-15,73,62,45,44,38,33,81,43,29,0.00,40.00,8,3,9,0.00
2012-6-16,69,57,47,44,37,-100,71,50,39,0.00,40.00,14,4,18,0.00
2012-6-17,73,61,51,57,48,38,96,67,28,0.00,40.00,20,8,32,0.00
2012-6-18,60,52,48,51,47,43,97,86,54,0.00,40.00,8,3,11,0.00
2012-6-19,58,51,47,49,46,38,97,84,48,0.00,40.00,16,7,19,0.00
2012-6-20,69,60,50,47,43,41,76,55,37,0.00,40.00,8,4,12,0.00
2012-6-21,81,59,48,47,44,41,88,62,26,0.00,40.00,5,3,6,0.00
2012-6-22,81,67,57,54,49,42,68,54,36,0.00,40.00,8,5,10,0.00
2012-6-23,81,65,58,60,55,51,95,72,41,0.00,40.00,11,4,15,0.00
2012-6-24,83,70,57,60,55,46,90,62,37,0.00,40.00,11,6,15,0.00
2012-6-25,85,71,59,58,51,46,67,50,35,0.00,40.00,12,6,17,0.00
2012-6-26,66,57,51,53,47,36,91,69,52,0.00,40.00,16,7,21,0.00
2012-6-27,68,57,51,45,40,36,75,55,40,0.00,40.00,12,5,17,0.00
2012-6-28,83,62,43,52,45,41,94,59,28,0.00,40.00,6,3,7,0.00
2012-6-29,77,66,57,58,51,46,86,62,37,0.00,40.00,11,4,14,0.00
2012-6-30,83,70,50,54,51,48,93,56,36,0.00,40.00,8,4,11,0.00
2012-7-1,71,62,58,60,56,52,97,81,56,0.00,40.00,12,6,16,0.00
2012-7-2,81,63,49,58,50,44,97,69,29,0.00,40.00,6,2,8,0.00
2012-7-3,68,60,54,55,46,34,93,61,35,0.00,40.00,20,7,23,0.00
2012-7-4,72,59,43,44,39,34,83,50,33,0.00,40.00,13,5,15,0.00
2012-7-5,82,68,50,50,45,41,79,46,28,0.00,40.00,6,3,9,0.00
2012-7-6,84,66,50,50,46,43,78,51,29,0.00,40.00,6,2,8,0.00
2012-7-7,87,68,54,56,51,47,82,56,30,0.00,40.00,23,4,30,0.00
2012-7-8,92,74,56,60,55,51,86,56,34,0.00,40.00,6,3,7,0.00
2012-7-9,72,65,59,56,52,49,78,62,55,0.00,40.00,5,4,6,0.00
2012-7-10,92,80,62,60,57,53,86,48,31,0.00,40.00,6,1,7,0.00
2012-7-11,92,74,58,58,55,52,84,56,29,0.00,40.00,6,2,8,0.00
2012-7-12,94,77,58,60,56,52,88,52,30,0.00,40.00,6,2,8,0.00
2012-7-13,95,81,69,62,59,54,65,48,32,0.00,40.00,11,4,14,0.00
2012-7-14,76,70,66,65,63,62,91,79,66,0.00,40.00,11,5,16,0.00
2012-7-15,74,66,62,64,60,53,95,82,50,0.00,40.00,11,3,16,0.00
2012-7-16,87,69,54,58,54,46,96,64,26,0.00,40.00,12,4,16,0.00
2012-7-17,78,70,61,64,58,55,85,68,48,0.00,40.00,11,2,14,0.00
2012-7-18,89,79,58,59,55,47,96,47,32,0.00,40.00,8,4,11,0.00
2012-7-19,91,69,57,57,54,47,86,61,31,0.00,40.00,5,2,7,0.00
2012-7-20,86,74,63,61,57,51,87,57,32,0.00,40.00,12,3,14,0.00
2012-7-21,83,73,57,61,53,46,96,55,30,0.00,40.00,7,2,9,0.00
2012-7-22,91,77,54,60,52,49,85,46,26,0.00,40.00,6,2,8,0.00
2012-7-23,74,69,59,59,46,35,81,46,25,0.00,40.00,15,7,19,0.00
2012-7-24,74,61,46,50,45,39,87,58,39,0.00,40.00,9,4,12,0.00
2012-7-25,83,67,51,56,51,49,91,61,34,0.00,40.00,6,2,7,0.00
2012-7-26,87,69,56,57,54,51,89,63,32,0.00,40.00,8,4,12,0.00
2012-7-27,89,70,57,59,55,51,86,61,33,0.00,40.00,6,3,9,0.00
2012-7-29,88,83,67,52,47,45,54,30,24,0.00,40.00,6,3,9,0.00
2012-7-30,91,73,53,56,50,45,77,47,25,0.00,40.00,9,4,13,0.00
2012-7-31,88,74,54,54,49,38,89,46,25,0.00,40.00,9,3,10,0.00
2012-8-1,86,71,52,52,46,37,72,44,28,0.00,40.00,8,4,11,0.00
2012-8-2,77,66,52,53,48,43,84,54,34,0.00,40.00,9,4,14,0.00
2012-8-3,76,61,46,51,46,42,96,63,33,0.00,40.00,9,5,14,0.00
2012-8-4,86,71,48,54,47,44,93,49,24,0.00,40.00,5,2,7,0.00
2012-8-5,92,73,53,55,51,45,89,52,24,0.00,40.00,5,2,8,0.00
2012-8-6,88,72,57,59,55,51,88,57,36,0.00,40.00,14,4,17,0.00
2012-8-7,91,69,55,57,54,51,92,63,27,0.00,40.00,8,3,10,0.00
2012-8-8,90,82,72,60,56,53,53,42,35,0.00,40.00,6,2,8,0.00
2012-8-9,92,74,54,56,50,40,88,52,17,0.00,40.00,5,2,6,0.00
2012-8-10,91,73,56,54,49,45,71,46,22,0.00,40.00,6,3,8,0.00
2012-8-11,89,70,53,55,48,-100,82,50,27,0.00,40.00,8,3,11,0.00
2012-8-12,90,72,54,59,51,42,76,50,28,0.00,40.00,8,3,8,0.00
2012-8-13,90,72,56,58,52,48,80,53,31,0.00,40.00,8,4,12,0.00
2012-8-14,90,72,55,58,52,47,79,53,26,0.00,40.00,17,6,24,0.00
2012-8-15,73,62,52,54,47,41,97,64,33,0.00,40.00,16,4,19,0.00
2012-8-16,81,62,45,49,42,31,89,55,18,0.00,40.00,7,3,8,0.00
2012-8-17,88,67,47,53,46,41,83,52,25,0.00,40.00,6,3,8,0.00
2012-8-18,93,70,51,52,48,44,82,52,20,0.00,40.00,9,3,11,0.00
2012-8-19,93,70,55,56,48,41,63,47,26,0.00,40.00,8,3,10,0.00
2012-8-20,92,73,55,56,52,49,85,52,27,0.00,40.00,9,3,12,0.00
2012-8-21,74,66,56,57,53,48,83,64,51,0.00,40.00,14,5,18,0.00
2012-8-22,83,68,57,58,50,37,97,62,26,0.00,40.00,9,3,12,0.00
2012-8-23,82,65,47,47,42,36,86,48,25,0.00,40.00,9,4,12,0.00
2012-8-24,67,60,50,41,38,35,67,45,34,0.00,40.00,14,7,19,0.00
2012-8-25,72,55,39,45,39,35,86,59,31,0.00,40.00,7,3,9,0.00
2012-8-26,81,60,44,51,42,38,81,56,27,0.00,40.00,8,4,11,0.00
2012-8-27,92,70,54,55,49,41,79,51,28,0.00,40.00,8,3,9,0.00
2012-8-28,91,69,51,57,46,40,72,46,26,0.00,40.00,9,4,12,0.00
2012-8-29,76,67,56,47,42,39,60,42,30,0.00,40.00,14,6,17,0.00
2012-8-30,79,61,44,47,43,38,80,55,31,0.00,40.00,8,4,11,0.00
2012-8-31,88,65,45,50,44,39,81,52,25,0.00,40.00,6,2,7,0.00
2012-9-1,76,62,50,51,43,33,78,52,22,0.00,40.00,18,5,24,0.00
2012-9-2,78,61,48,46,39,35,66,46,28,0.00,40.00,16,7,19,0.00
2012-9-3,79,61,42,48,42,36,86,54,29,0.00,40.00,15,4,18,0.00
2012-9-4,76,64,51,48,44,40,68,50,35,0.00,40.00,8,3,10,0.00
2012-9-5,77,60,41,48,44,38,91,60,32,0.00,40.00,11,3,14,0.00
2012-9-6,68,56,49,51,47,42,99,74,40,0.00,40.00,21,6,29,0.00
2012-9-7,75,60,42,49,44,41,96,59,32,0.00,40.00,7,3,9,0.00
2012-9-8,80,60,44,49,44,41,96,62,27,0.00,40.00,8,3,11,0.00
2012-9-9,80,63,50,50,45,42,77,56,29,0.00,40.00,12,5,17,0.00
2012-9-10,66,59,48,43,39,33,71,49,35,0.00,40.00,14,7,19,0.00
2012-9-11,64,52,42,41,34,26,87,56,26,0.00,40.00,11,4,16,0.00
2012-9-12,65,51,36,39,32,29,79,52,31,0.00,40.00,11,4,14,0.00
2012-9-13,78,56,37,46,39,34,88,56,26,0.00,40.00,6,2,8,0.00
2012-9-14,77,60,40,48,42,37,91,57,29,0.00,40.00,8,2,11,0.00
2012-9-15,78,58,45,47,44,40,84,62,31,0.00,40.00,6,2,8,0.00
2012-9-16,77,61,47,47,42,39,89,55,27,0.00,40.00,6,3,8,0.00
2012-9-17,77,60,42,47,42,39,87,56,32,0.00,40.00,6,3,9,0.00
2012-9-18,80,56,42,46,43,40,92,67,27,0.00,40.00,9,3,11,0.00
2012-9-19,79,57,43,46,42,38,84,62,29,0.00,40.00,6,2,8,0.00
2012-9-20,82,63,44,48,44,40,90,55,27,0.00,40.00,6,3,9,0.00
2012-9-21,58,51,46,47,44,42,87,77,60,0.00,40.00,5,3,6,0.00
2012-9-22,77,61,49,53,46,-100,87,64,38,0.00,40.00,7,2,8,0.00
2012-9-23,74,54,45,50,47,44,95,78,42,0.00,40.00,8,3,9,0.00
2012-9-24,74,57,45,50,47,44,99,74,42,0.00,40.00,7,1,9,0.00
2012-9-25,73,57,45,49,46,43,98,71,37,0.00,40.00,0,0,0,0.00
2012-9-26,72,58,47,49,46,41,93,66,37,0.00,40.00,5,1,6,0.00
2012-9-27,73,57,41,46,42,39,92,63,34,0.00,40.00,7,3,8,0.00
2012-9-28,76,54,42,47,42,39,93,70,31,0.00,40.00,6,2,7,0.00
2012-9-29,77,60,46,47,44,42,88,61,31,0.00,40.00,12,4,14,0.00
2012-9-30,76,60,46,50,44,34,92,59,32,0.00,40.00,6,2,9,0.00
2012-10-1,75,58,40,45,39,35,84,53,29,0.00,40.00,17,5,19,0.00
2012-10-2,70,59,40,47,40,35,99,53,31,0.00,40.00,17,8,22,0.00
2012-10-3,41,39,38,39,36,34,95,88,79,0.00,40.00,16,8,21,0.00
2012-10-4,51,42,27,31,26,22,97,57,36,0.00,40.00,8,4,9,0.00
2012-10-5,53,38,26,31,24,18,93,63,28,0.00,40.00,7,4,8,0.00
2012-10-6,54,36,26,27,24,20,88,66,32,0.00,40.00,5,3,6,0.00
2012-10-8,55,50,41,40,37,36,82,63,50,0.00,40.00,12,4,17,0.00
2012-10-9,62,47,38,38,36,33,83,67,42,0.00,40.00,8,4,9,0.00
2012-10-10,65,47,32,39,36,31,99,69,38,0.00,40.00,11,3,16,0.00
2012-10-11,62,47,36,38,33,28,82,59,41,0.00,40.00,7,3,9,0.00
2012-10-12,67,47,30,39,34,30,98,67,32,0.00,40.00,8,3,11,0.00
2012-10-13,60,55,49,49,41,31,88,61,39,0.00,40.00,14,6,17,0.00
2012-10-14,64,56,50,48,45,41,88,68,47,0.00,40.00,9,5,14,0.00
2012-10-15,63,57,52,51,46,39,92,69,44,0.00,40.00,14,7,18,0.00
2012-10-16,55,48,41,51,41,29,97,77,45,0.00,40.00,22,8,26,0.00
2012-10-17,53,44,37,29,25,20,63,47,29,0.00,40.00,15,8,19,0.00
2012-10-18,56,44,31,32,28,23,86,56,34,0.00,40.00,9,4,12,0.00
2012-10-19,54,45,37,49,39,31,90,80,64,0.00,40.00,9,4,12,0.00
2012-10-20,50,45,34,44,28,20,87,54,35,0.00,40.00,20,8,26,0.00
2012-10-21,45,36,31,34,30,24,93,78,53,0.00,40.00,7,3,8,0.00
2012-10-22,43,33,26,33,29,25,98,85,51,0.00,40.00,11,5,12,0.00
2012-10-23,38,32,28,32,29,28,98,89,69,0.00,40.00,7,2,9,0.00
2012-10-24,45,35,31,34,32,28,98,89,53,0.00,40.00,6,3,8,0.00
2012-10-25,35,32,28,30,25,23,93,77,67,0.00,40.00,9,4,11,0.00
2012-10-26,43,35,29,33,29,25,92,80,62,0.00,40.00,6,2,7,0.00
2012-10-27,37,34,33,36,34,31,98,97,88,0.00,40.00,6,2,7,0.00
2012-10-28,46,39,35,45,39,35,99,98,97,0.00,40.00,10,3,13,0.00
2012-10-29,54,44,38,52,42,37,99,93,69,0.00,40.00,12,4,13,0.00
2012-10-30,58,50,46,45,42,40,86,76,55,0.00,40.00,13,6,16,0.00
2012-10-31,51,47,45,50,46,44,97,97,96,0.00,40.00,5,3,6,0.00
2012-11-1,49,46,43,48,43,41,98,92,83,0.00,40.00,11,4,14,0.00
2012-11-2,49,45,41,42,41,38,93,83,68,0.00,40.00,8,3,11,0.00
2012-11-3,45,40,34,43,39,33,98,95,90,0.00,40.00,4,3,6,0.00
2012-11-4,56,51,45,47,44,41,94,78,57,0.00,40.00,9,4,11,0.00
2012-11-5,65,56,43,46,41,34,77,58,34,0.00,40.00,16,7,19,0.00
2012-11-6,59,46,38,42,39,35,90,77,52,0.00,40.00,6,3,9,0.00
2012-11-7,53,46,32,47,32,23,92,61,33,0.00,40.00,19,8,24,0.00
2012-11-8,39,32,28,27,24,18,87,72,42,0.00,40.00,10,4,14,0.00
2012-11-9,35,27,23,22,12,7,65,53,48,0.00,40.00,12,6,16,0.00
2012-11-10,28,23,20,12,8,5,62,50,43,0.00,40.00,6,4,9,0.00
2012-11-11,30,26,22,20,17,11,76,67,60,0.00,40.00,6,3,8,0.00
2012-11-12,34,31,28,31,26,20,98,83,68,0.00,40.00,8,2,11,0.00
2012-11-13,41,34,29,36,32,29,99,93,75,0.00,40.00,5,2,7,0.00
2012-11-14,45,38,32,36,31,-100,93,76,55,0.00,40.00,11,4,12,0.00
2012-11-15,46,32,25,32,27,24,96,83,49,0.00,40.00,6,3,7,0.00
2012-11-16,41,34,30,33,30,27,92,85,71,0.00,40.00,4,1,5,0.00
2012-11-17,43,35,29,37,32,28,99,90,72,0.00,40.00,4,2,5,0.00
2012-11-18,46,40,33,38,28,23,91,63,42,0.00,40.00,17,6,24,0.00
2012-11-19,48,37,29,40,33,25,92,84,69,0.00,40.00,19,6,22,0.00
2012-11-20,50,44,41,42,40,38,97,88,65,0.00,40.00,19,6,22,0.00
2012-11-21,45,40,35,41,33,23,97,79,45,0.00,40.00,18,5,23,0.00
2012-11-22,41,36,29,29,22,19,80,58,44,0.00,40.00,9,4,12,0.00
2012-11-23,37,33,29,29,26,23,88,77,64,0.00,40.00,5,2,6,0.00
2012-11-24,41,37,29,39,34,28,96,91,84,0.00,40.00,11,5,16,0.00
2012-11-25,39,32,27,35,29,26,99,91,64,0.00,40.00,5,2,6,0.00
2012-11-26,27,25,22,26,22,18,95,89,83,0.00,40.00,5,4,6,0.00
2012-11-27,32,28,22,25,23,19,91,82,71,0.00,40.00,4,2,6,0.00
2012-11-28,38,27,24,30,24,22,93,88,63,0.00,40.00,4,2,4,0.00
2012-11-30,43,42,38,43,40,37,99,96,94,0.00,40.00,11,5,15,0.00
2012-12-1,48,40,34,42,36,30,98,85,54,0.00,40.00,11,5,18,0.00
2012-12-2,38,36,34,37,34,32,97,92,81,0.00,40.00,5,2,8,0.00
2012-12-3,43,41,39,29,28,28,65,61,57,0.00,40.00,7,3,11,0.00
2012-12-4,46,43,41,39,37,36,88,81,71,0.00,40.00,16,10,22,0.00
2012-12-5,47,42,32,41,27,17,88,57,36,0.00,40.00,18,10,32,0.00
2012-12-6,34,32,29,31,23,-100,94,76,53,0.00,40.00,11,6,16,0.00
2012-12-7,33,31,30,31,29,28,96,94,84,0.00,40.00,8,3,15,0.00
2012-12-13,36,32,26,31,23,18,98,72,56,0.00,40.00,7,3,10,0.00
2012-12-14,29,23,17,24,20,15,94,87,73,0.00,40.00,4,2,6,0.00
2012-12-15,31,27,24,26,24,23,95,90,78,0.00,40.00,4,1,6,0.00
2012-12-16,36,30,25,26,21,16,95,72,45,0.00,40.00,13,5,21,0.00
2012-12-17,40,33,28,33,26,19,93,76,48,0.00,40.00,17,9,27,0.00
2012-12-18,32,28,23,23,15,12,77,58,47,0.00,40.00,14,5,19,0.00
2012-12-19,32,25,18,20,16,13,89,72,49,0.00,40.00,12,5,16,0.00
2012-12-20,37,33,28,26,22,18,75,62,56,0.00,40.00,13,7,19,0.00
2012-12-21,36,33,30,34,31,24,97,91,74,0.00,40.00,6,3,8,0.00
2012-12-22,36,34,32,34,32,31,97,92,83,0.00,40.00,11,4,17,0.00
2012-12-23,39,33,28,32,29,24,92,85,64,0.00,40.00,9,5,14,0.00
2012-12-24,29,21,17,26,14,7,89,75,60,0.00,40.00,12,6,22,0.00
2012-12-25,24,20,17,15,12,9,82,72,63,0.00,40.00,8,4,11,0.00
2012-12-26,26,21,18,20,17,14,91,83,71,0.00,40.00,6,2,8,0.00
2012-12-27,29,24,21,25,21,17,94,87,79,0.00,40.00,9,2,10,0.00
2012-12-28,35,26,20,25,22,19,96,86,61,0.00,40.00,6,2,8,0.00
2012-12-29,32,25,21,23,20,17,92,84,69,0.00,40.00,6,2,6,0.00
2012-12-30,28,24,23,22,21,20,93,87,76,0.00,40.00,4,2,7,0.00
2012-12-31,34,25,21,22,20,17,92,82,54,0.00,40.00,3,1,4,0.00
2013-1-1,29,25,24,22,20,17,87,78,70,0.00,40.00,6,2,11,0.00